Time;durP1;ratioP1;P1;durP2;ratioP2;P2;SDS_P1;SDS_P2;PMS_P1;PMS_P2;Temp;Humidity;BMP_temperature;BMP_pressure;BME280_temperature;BME280_humidity;BME280_pressure;Samples;Min_cycle;Max_cycle;Signal;HPM_P1;HPM_P2
2022/04/02 00:02:15;;;;;;;3.90;1.93;;;;;;;0.97;66.01;101419.84;5030541;28;20021;-81
2022/04/02 00:04:41;;;;;;;3.57;1.90;;;;;;;0.96;65.99;101419.00;5029346;28;20159;-81
2022/04/02 00:07:06;;;;;;;7.10;2.20;;;;;;;0.98;65.70;101416.47;5029901;28;20025;-80
2022/04/02 00:09:31;;;;;;;5.57;2.20;;;;;;;0.98;66.37;101422.47;5013258;28;20021;-80
2022/04/02 00:11:56;;;;;;;3.70;1.93;;;;;;;0.98;66.18;101422.47;5030646;28;20029;-80
2022/04/02 00:14:22;;;;;;;3.83;2.07;;;;;;;1.00;65.97;101431.06;5032945;28;20075;-80
2022/04/02 00:16:47;;;;;;;4.80;2.20;;;;;;;0.97;66.31;101433.53;5032371;28;21660;-80
2022/04/02 00:19:12;;;;;;;4.17;1.80;;;;;;;0.96;66.45;101428.38;5030965;28;20025;-80
2022/04/02 00:21:38;;;;;;;3.27;2.00;;;;;;;0.95;66.40;101430.06;5031498;28;20026;-80
2022/04/02 00:24:04;;;;;;;6.43;2.30;;;;;;;0.96;66.05;101431.81;5039033;28;20047;-81
2022/04/02 00:26:29;;;;;;;5.10;2.40;;;;;;;0.95;66.20;101431.75;5031473;28;20032;-80
2022/04/02 00:28:55;;;;;;;4.87;2.10;;;;;;;0.90;67.04;101439.34;5030619;28;20034;-80
2022/04/02 00:31:21;;;;;;;5.63;2.30;;;;;;;0.89;66.32;101438.50;5030375;28;20508;-80
2022/04/02 00:33:47;;;;;;;4.10;2.17;;;;;;;0.89;66.42;101447.84;5031646;28;20077;-80
2022/04/02 00:36:14;;;;;;;5.13;1.90;;;;;;;0.87;66.65;101439.25;5029425;28;20025;-80
2022/04/02 00:38:40;;;;;;;4.00;2.20;;;;;;;0.90;66.89;101445.34;5031132;28;20116;-80
2022/04/02 00:41:06;;;;;;;4.07;2.50;;;;;;;0.87;66.27;101436.69;5030626;28;20036;-80
2022/04/02 00:43:33;;;;;;;4.27;2.00;;;;;;;0.87;66.97;101434.13;5031115;28;20024;-80
2022/04/02 00:46:04;;;;;;;4.23;1.90;;;;;;;0.85;66.57;101430.69;5050634;28;20437;-80
2022/04/02 00:48:30;;;;;;;3.75;1.95;;;;;;;0.83;67.54;101430.66;5034345;28;20099;-80
2022/04/02 00:50:56;;;;;;;4.63;2.10;;;;;;;0.82;67.28;101430.63;5019502;28;20060;-80
2022/04/02 00:53:30;;;;;;;3.80;2.30;;;;;;;0.78;66.90;101427.09;5034284;28;20472;-80
2022/04/02 00:55:55;;;;;;;4.43;2.10;;;;;;;0.76;67.50;101426.22;5017357;28;20710;-80
2022/04/02 00:58:21;;;;;;;4.60;1.90;;;;;;;0.75;67.12;101429.63;5034260;28;20063;-80
2022/04/02 01:00:46;;;;;;;4.77;2.30;;;;;;;0.77;66.81;101430.50;5040659;28;20460;-80
2022/04/02 01:03:14;;;;;;;5.60;2.00;;;;;;;0.75;67.22;101434.75;5020060;28;20029;-80
2022/04/02 01:05:40;;;;;;;3.10;2.03;;;;;;;0.76;67.06;101436.47;5034917;28;20108;-80
2022/04/02 01:08:05;;;;;;;4.27;2.30;;;;;;;0.73;67.26;101437.25;5034825;28;20030;-80
2022/04/02 01:10:32;;;;;;;3.77;2.20;;;;;;;0.72;67.00;101434.66;5033957;28;20056;-80
2022/04/02 01:12:59;;;;;;;3.67;2.10;;;;;;;0.72;67.21;101434.66;5033601;28;20120;-80
2022/04/02 01:15:25;;;;;;;3.60;2.17;;;;;;;0.70;67.78;101437.16;5034921;28;20026;-80
2022/04/02 01:17:51;;;;;;;3.97;2.20;;;;;;;0.69;67.29;101435.44;5034497;28;20056;-80
2022/04/02 01:20:17;;;;;;;3.97;2.30;;;;;;;0.69;67.41;101439.69;5036128;28;20464;-80
2022/04/02 01:22:42;;;;;;;7.97;2.10;;;;;;;0.68;67.65;101438.84;5025217;28;20091;-81
2022/04/02 01:25:08;;;;;;;3.83;2.13;;;;;;;0.67;67.11;101439.66;5016444;28;20468;-81
2022/04/02 01:27:34;;;;;;;4.63;2.10;;;;;;;0.66;67.57;101430.25;5032035;28;20411;-80
2022/04/02 01:29:59;;;;;;;4.97;2.10;;;;;;;0.66;67.27;101430.25;5032858;28;20034;-81
2022/04/02 01:32:24;;;;;;;3.50;2.00;;;;;;;0.66;67.68;101430.25;5020490;28;20356;-81
2022/04/02 01:34:50;;;;;;;3.40;2.00;;;;;;;0.66;67.71;101430.25;5031547;28;20029;-81
2022/04/02 01:37:19;;;;;;;3.17;2.07;;;;;;;0.65;67.62;101431.09;5031727;28;20030;-81
2022/04/02 01:39:44;;;;;;;2.97;1.80;;;;;;;0.66;67.29;101434.50;5033514;28;21425;-81
2022/04/02 01:42:10;;;;;;;5.87;2.20;;;;;;;0.65;67.29;101428.53;5034502;28;20503;-81
2022/04/02 01:44:36;;;;;;;3.20;1.70;;;;;;;0.65;67.23;101431.09;5033564;28;20533;-81
2022/04/02 01:47:02;;;;;;;3.27;1.90;;;;;;;0.67;66.86;101424.31;5033450;28;20488;-80
2022/04/02 01:49:27;;;;;;;4.10;1.90;;;;;;;0.67;67.07;101424.31;5034281;28;20030;-80
2022/04/02 01:51:52;;;;;;;3.70;2.20;;;;;;;0.66;67.31;101429.38;5031857;28;20033;-81
2022/04/02 01:54:19;;;;;;;5.30;2.10;;;;;;;0.64;66.98;101433.59;5032305;28;20477;-81
2022/04/02 01:56:45;;;;;;;2.83;1.70;;;;;;;0.60;67.56;101432.66;5036706;28;20586;-81
2022/04/02 01:59:11;;;;;;;3.97;2.13;;;;;;;0.57;67.38;101438.56;5041199;28;20048;-81
2022/04/02 02:01:36;;;;;;;4.43;2.20;;;;;;;0.55;67.35;101441.91;5036182;28;20037;-81
2022/04/02 02:04:01;;;;;;;3.60;1.90;;;;;;;0.57;67.18;101440.25;5035240;28;20064;-81
2022/04/02 02:06:27;;;;;;;3.17;1.90;;;;;;;0.54;67.21;101442.72;5034509;28;20077;-80
2022/04/02 02:08:52;;;;;;;5.00;1.97;;;;;;;0.57;67.26;101440.25;5032630;28;20489;-81
2022/04/02 02:11:18;;;;;;;3.23;2.20;;;;;;;0.58;66.62;101447.09;5033612;28;20030;-80
2022/04/02 02:13:44;;;;;;;3.23;1.80;;;;;;;0.53;67.02;101444.44;5032729;28;20159;-81
2022/04/02 02:16:10;;;;;;;4.60;1.60;;;;;;;0.53;67.09;101446.13;5032195;28;20551;-81
2022/04/02 02:18:35;;;;;;;4.03;2.10;;;;;;;0.53;66.01;101448.66;5032099;28;20040;-81
2022/04/02 02:21:00;;;;;;;4.27;2.30;;;;;;;0.52;67.09;101454.63;5032545;28;20037;-81
2022/04/02 02:23:26;;;;;;;4.37;2.10;;;;;;;0.55;66.70;101447.03;5045294;28;20036;-81
2022/04/02 02:25:51;;;;;;;4.70;1.93;;;;;;;0.60;65.22;101450.56;5032712;28;20531;-80
2022/04/02 02:28:16;;;;;;;4.33;2.23;;;;;;;0.59;65.72;101448.84;5032153;28;20477;-81
2022/04/02 02:30:42;;;;;;;2.73;1.70;;;;;;;0.56;66.30;101448.75;5033638;28;20029;-80
2022/04/02 02:35:52;;;;;;;4.03;2.00;;;;;;;0.54;66.16;101456.41;5032134;28;20489;-81
2022/04/02 02:38:20;;;;;;;3.60;1.80;;;;;;;0.55;65.52;101454.69;5033871;28;20029;-81
2022/04/02 02:40:47;;;;;;;3.73;1.70;;;;;;;0.56;65.08;101452.19;5033934;28;20029;-80
2022/04/02 02:43:13;;;;;;;4.90;2.07;;;;;;;0.54;65.43;101451.28;5032482;28;20026;-81
2022/04/02 02:45:39;;;;;;;4.03;2.00;;;;;;;0.55;65.15;101454.69;5032133;28;20023;-80
2022/04/02 02:48:05;;;;;;;5.07;2.70;;;;;;;0.56;64.90;101456.44;5033248;28;20104;-81
2022/04/02 02:50:30;;;;;;;4.03;1.87;;;;;;;0.60;65.29;101454.00;5032578;28;20025;-82
2022/04/02 02:52:56;;;;;;;3.20;1.70;;;;;;;0.62;64.80;101448.03;5015341;28;20033;-80
2022/04/02 02:55:21;;;;;;;3.20;1.70;;;;;;;0.60;65.25;101450.56;5032893;28;20032;-81
2022/04/02 02:57:47;;;;;;;4.37;2.00;;;;;;;0.58;64.71;101450.56;5034056;28;20499;-80
2022/04/02 03:00:14;;;;;;;2.83;1.70;;;;;;;0.56;64.45;101446.19;5032483;28;20029;-83
2022/04/02 03:02:40;;;;;;;3.60;1.93;;;;;;;0.53;64.88;101451.22;5032537;28;20053;-81
2022/04/02 03:05:10;;;;;;;4.00;1.50;;;;;;;0.52;64.81;101444.38;5031193;28;20049;-80
2022/04/02 03:07:37;;;;;;;3.27;1.77;;;;;;;0.51;64.83;101451.22;5031736;28;20021;-81
2022/04/02 03:10:02;;;;;;;2.23;1.50;;;;;;;0.55;65.33;101441.91;5032417;28;20052;-80
2022/04/02 03:12:28;;;;;;;3.33;1.60;;;;;;;0.63;63.65;101445.53;5031791;28;20053;-81
2022/04/02 03:14:53;;;;;;;4.50;2.07;;;;;;;0.64;63.69;101441.25;5032211;28;20017;-80
2022/04/02 03:17:19;;;;;;;2.60;1.50;;;;;;;0.63;63.13;101440.41;5031091;28;20060;-80
2022/04/02 03:19:44;;;;;;;1.63;1.30;;;;;;;0.65;63.61;101443.88;5038488;28;20025;-80
2022/04/02 03:22:09;;;;;;;3.73;1.70;;;;;;;0.66;63.92;101450.75;5032168;28;20025;-80
2022/04/02 03:24:35;;;;;;;3.33;1.80;;;;;;;0.66;64.05;101454.97;5032164;28;20051;-81
2022/04/02 03:27:00;;;;;;;4.47;1.80;;;;;;;0.67;63.10;101457.59;5031336;28;20037;-81
2022/04/02 03:29:27;;;;;;;5.57;1.70;;;;;;;0.67;63.58;101456.72;5031827;28;20486;-81
2022/04/02 03:31:52;;;;;;;4.00;1.53;;;;;;;0.71;63.35;101455.97;5014777;28;20502;-80
2022/04/02 03:34:17;;;;;;;4.00;1.80;;;;;;;0.70;63.45;101467.03;5030796;28;20064;-80
2022/04/02 03:36:42;;;;;;;3.17;1.60;;;;;;;0.72;62.77;101468.78;5031509;28;20021;-80
2022/04/02 03:39:08;;;;;;;5.10;2.10;;;;;;;0.75;62.08;101470.59;5039534;28;20068;-80
2022/04/02 03:41:34;;;;;;;3.87;1.70;;;;;;;0.72;62.75;101471.38;5035418;28;21467;-80
2022/04/02 03:43:59;;;;;;;3.00;1.70;;;;;;;0.72;63.02;101471.38;5032408;28;20036;-80
2022/04/02 03:49:08;;;;;;;2.93;1.50;;;;;;;0.66;62.61;101472.91;5033742;28;20048;-80
2022/04/02 03:51:33;;;;;;;3.27;1.67;;;;;;;0.65;63.19;101479.72;5032138;28;20544;-80
2022/04/02 03:53:59;;;;;;;3.27;1.60;;;;;;;0.58;62.96;101494.06;5032269;28;20047;-81
2022/04/02 03:56:25;;;;;;;3.13;1.77;;;;;;;0.60;63.21;101486.44;5035138;28;20049;-80
2022/04/02 03:58:51;;;;;;;4.67;2.00;;;;;;;0.57;63.09;101491.47;5032426;28;20041;-80
2022/04/02 04:01:16;;;;;;;3.30;1.63;;;;;;;0.56;63.25;101492.28;5029907;28;20400;-81
2022/04/02 04:03:41;;;;;;;2.10;1.50;;;;;;;0.55;63.56;101486.31;5037381;28;20103;-80
2022/04/02 04:06:07;;;;;;;2.63;1.73;;;;;;;0.51;63.92;101488.75;5038830;28;20036;-81
2022/04/02 04:08:32;;;;;;;3.60;1.70;;;;;;;0.50;64.05;101499.81;5042965;28;20036;-80
2022/04/02 04:10:57;;;;;;;3.13;1.60;;;;;;;0.44;63.47;101496.25;5034308;28;20025;-80
2022/04/02 04:13:23;;;;;;;2.33;1.60;;;;;;;0.44;64.31;101501.38;5037641;28;20021;-80
2022/04/02 04:15:48;;;;;;;3.93;1.73;;;;;;;0.41;64.40;101501.28;5032232;28;20453;-81
2022/04/02 04:18:13;;;;;;;2.73;1.80;;;;;;;0.39;64.14;101508.06;5032435;28;20029;-80
2022/04/02 04:20:39;;;;;;;4.17;1.90;;;;;;;0.38;64.14;101506.31;5035484;28;20021;-81
2022/04/02 04:23:04;;;;;;;4.20;1.93;;;;;;;0.39;65.40;101505.50;5032009;28;20392;-80
2022/04/02 04:25:29;;;;;;;3.07;1.90;;;;;;;0.39;64.50;101512.34;5030962;28;20123;-80
2022/04/02 04:27:55;;;;;;;4.77;1.77;;;;;;;0.39;64.26;101510.63;5031973;28;20033;-80
2022/04/02 04:30:20;;;;;;;3.07;1.80;;;;;;;0.37;65.21;101512.28;5032296;28;20395;-80
2022/04/02 04:32:45;;;;;;;3.77;1.80;;;;;;;0.35;64.47;101513.06;5032401;28;20489;-80
2022/04/02 04:35:10;;;;;;;3.07;1.70;;;;;;;0.35;65.30;101516.47;5031762;28;20032;-80
2022/04/02 04:37:36;;;;;;;4.20;2.10;;;;;;;0.38;65.37;101520.84;5023886;28;20033;-81
2022/04/02 04:40:04;;;;;;;2.83;1.80;;;;;;;0.34;65.36;101513.88;5031337;28;20185;-80
2022/04/02 04:42:29;;;;;;;3.73;1.93;;;;;;;0.30;65.13;101516.34;5012698;28;20468;-80
2022/04/02 04:44:55;;;;;;;3.80;1.80;;;;;;;0.26;66.12;101516.25;5031289;28;20029;-80
2022/04/02 04:47:20;;;;;;;2.93;1.90;;;;;;;0.24;65.59;101515.31;5033454;28;20396;-80
2022/04/02 04:49:45;;;;;;;2.83;1.70;;;;;;;0.20;65.82;101521.19;5046422;28;20021;-81
2022/04/02 04:52:10;;;;;;;4.50;2.20;;;;;;;0.14;66.76;101527.00;5016537;28;20048;-80
2022/04/02 04:54:36;;;;;;;3.73;2.07;;;;;;;0.11;66.57;101530.34;5023084;28;20037;-80
2022/04/02 04:57:01;;;;;;;4.07;2.10;;;;;;;0.08;66.68;101530.25;5033274;28;20037;-80
2022/04/02 04:59:26;;;;;;;4.80;2.13;;;;;;;0.06;66.69;101539.56;5031032;28;20032;-80
2022/04/02 05:01:52;;;;;;;3.67;2.00;;;;;;;0.06;66.50;101543.84;5030456;28;20025;-80
2022/04/02 05:04:18;;;;;;;3.77;2.10;;;;;;;0.03;66.90;101548.84;5030274;28;20443;-80
2022/04/02 05:06:43;;;;;;;3.50;1.87;;;;;;;0.03;66.42;101548.84;5032119;28;20034;-80
2022/04/02 05:09:09;;;;;;;3.73;2.00;;;;;;;0.03;66.16;101553.97;5030794;28;20507;-80
2022/04/02 05:11:35;;;;;;;3.47;1.90;;;;;;;0.07;66.10;101551.53;5030002;28;20037;-80
2022/04/02 05:14:00;;;;;;;3.50;2.13;;;;;;;0.07;65.94;101559.22;5028687;28;20033;-81
2022/04/02 05:16:26;;;;;;;3.00;1.63;;;;;;;0.10;65.56;101551.63;5011835;28;20049;-80
2022/04/02 05:18:52;;;;;;;5.20;2.30;;;;;;;0.09;65.40;101557.56;5032232;28;20025;-81
2022/04/02 05:21:18;;;;;;;2.80;1.50;;;;;;;0.11;65.38;101560.16;5029643;28;20033;-80
2022/04/02 05:23:43;;;;;;;4.43;2.00;;;;;;;0.12;65.61;101557.66;5028463;28;20045;-80
2022/04/02 05:26:08;;;;;;;4.83;2.00;;;;;;;0.13;66.08;101567.06;5034894;28;20079;-80
2022/04/02 05:28:34;;;;;;;5.30;1.90;;;;;;;0.17;65.40;101567.19;5032663;28;20075;-80
2022/04/02 05:30:59;;;;;;;8.43;2.40;;;;;;;0.17;66.12;101573.16;5033052;28;20082;-80
2022/04/02 05:33:24;;;;;;;3.00;1.80;;;;;;;0.20;66.01;101577.47;5033264;28;20076;-79
2022/04/02 05:35:50;;;;;;;4.70;2.00;;;;;;;0.21;65.57;101580.09;5016139;28;20033;-80
2022/04/02 05:38:15;;;;;;;4.63;1.90;;;;;;;0.22;65.69;101588.63;5032153;28;20143;-80
2022/04/02 05:40:40;;;;;;;3.00;1.60;;;;;;;0.22;65.52;101588.63;5034711;28;20474;-80
2022/04/02 05:43:06;;;;;;;3.60;1.80;;;;;;;0.25;65.08;101592.16;5038353;28;20092;-79
2022/04/02 05:45:32;;;;;;;2.77;1.60;;;;;;;0.27;64.94;101594.75;5037783;28;20044;-81
2022/04/02 05:47:57;;;;;;;3.10;1.80;;;;;;;0.28;65.11;101599.91;5020268;28;20115;-81
2022/04/02 05:50:24;;;;;;;3.33;1.97;;;;;;;0.28;64.82;101606.72;5036152;28;20080;-81
2022/04/02 05:52:49;;;;;;;4.27;1.80;;;;;;;0.38;64.81;101592.50;5036746;28;20036;-80
2022/04/02 05:55:15;;;;;;;3.13;1.80;;;;;;;0.39;64.38;101604.47;5036297;28;20040;-79
2022/04/02 05:57:42;;;;;;;4.20;1.60;;;;;;;0.41;64.95;101601.13;5036193;28;20091;-80
2022/04/02 06:00:10;;;;;;;4.07;1.77;;;;;;;0.42;65.14;101599.47;5039824;28;20076;-80
2022/04/02 06:02:37;;;;;;;3.93;1.63;;;;;;;0.44;64.75;101610.56;5041648;28;20048;-80
2022/04/02 06:05:02;;;;;;;5.00;1.80;;;;;;;0.50;63.93;101613.31;5039667;28;20033;-80
2022/04/02 06:07:27;;;;;;;3.10;1.63;;;;;;;0.51;64.92;101614.22;5040484;28;20036;-80
2022/04/02 06:09:53;;;;;;;3.73;1.93;;;;;;;0.53;63.89;101625.34;5040456;28;20045;-80
2022/04/02 06:12:18;;;;;;;3.07;1.70;;;;;;;0.56;64.57;101627.97;5037158;28;20032;-80
2022/04/02 06:14:43;;;;;;;2.90;1.90;;;;;;;0.57;64.03;101630.59;5037321;28;20435;-81
2022/04/02 06:17:09;;;;;;;4.10;2.00;;;;;;;0.62;63.99;101627.28;5038675;28;20074;-81
2022/04/02 06:19:34;;;;;;;3.37;2.00;;;;;;;0.59;64.55;101628.06;5038951;28;20757;-81
2022/04/02 06:22:00;;;;;;;4.43;2.13;;;;;;;0.63;64.17;101624.78;5039038;28;20037;-82
2022/04/02 06:24:25;;;;;;;4.23;1.97;;;;;;;0.64;64.92;101631.66;5039774;28;20119;-80
2022/04/02 06:26:50;;;;;;;2.70;1.67;;;;;;;0.69;64.35;101634.31;5038577;28;20043;-84
2022/04/02 06:29:16;;;;;;;4.07;1.93;;;;;;;0.72;63.59;101634.41;5038130;28;21477;-80
2022/04/02 06:31:41;;;;;;;3.73;1.83;;;;;;;0.73;64.19;101639.56;5038318;28;20104;-81
2022/04/02 06:34:06;;;;;;;2.67;1.73;;;;;;;0.74;64.04;101643.88;5038965;28;20049;-80
2022/04/02 06:36:31;;;;;;;4.33;1.80;;;;;;;0.80;63.77;101647.44;5040400;28;20112;-80
2022/04/02 06:38:57;;;;;;;5.03;1.90;;;;;;;0.80;63.73;101657.69;5037231;28;21420;-81
2022/04/02 06:41:23;;;;;;;4.63;1.80;;;;;;;0.82;64.54;101656.03;5037294;28;20053;-82
2022/04/02 06:43:48;;;;;;;3.50;2.00;;;;;;;0.84;63.99;101647.56;5033763;28;20452;-80
2022/04/02 06:46:13;;;;;;;3.10;1.80;;;;;;;0.86;63.78;101660.38;5037024;28;20025;-80
2022/04/02 06:48:38;;;;;;;4.30;2.00;;;;;;;0.88;64.11;101654.50;5038789;28;20159;-81
2022/04/02 06:51:06;;;;;;;4.00;1.83;;;;;;;0.92;63.79;101652.88;5040631;28;20771;-81
2022/04/02 06:53:31;;;;;;;3.37;1.73;;;;;;;0.95;63.25;101660.66;5035848;28;20029;-81
2022/04/02 06:55:57;;;;;;;3.23;2.17;;;;;;;0.96;63.65;101664.97;5039275;28;20105;-81
2022/04/02 06:58:32;;;;;;;2.97;1.80;;;;;;;0.97;63.27;101670.94;5038994;28;20384;-80
2022/04/02 07:00:58;;;;;;;6.30;2.10;;;;;;;1.02;63.78;101661.69;5037624;28;20037;-80
2022/04/02 07:03:23;;;;;;;3.90;1.70;;;;;;;1.03;63.61;101677.09;5036573;28;20503;-81
2022/04/02 07:05:49;;;;;;;3.60;2.00;;;;;;;1.02;63.63;101685.63;5037897;28;20036;-81
2022/04/02 07:08:14;;;;;;;3.83;2.03;;;;;;;1.07;64.45;101688.31;5039492;28;20032;-82
2022/04/02 07:10:39;;;;;;;3.70;1.73;;;;;;;1.11;63.86;101691.81;5037033;28;20473;-80
2022/04/02 07:13:05;;;;;;;3.40;1.83;;;;;;;1.13;63.18;101688.47;5036716;28;20037;-81
2022/04/02 07:15:30;;;;;;;4.97;1.90;;;;;;;1.17;63.77;101694.56;5037411;28;20051;-81
2022/04/02 07:17:55;;;;;;;4.10;2.07;;;;;;;1.22;63.44;101682.72;5039574;28;20036;-81
2022/04/02 07:20:27;;;;;;;5.50;1.90;;;;;;;1.24;63.02;101696.44;5035882;28;20357;-81
2022/04/02 07:22:53;;;;;;;3.88;2.13;;;;;;;1.30;63.83;101696.63;5037987;28;20031;-80
2022/04/02 07:25:19;;;;;;;4.63;2.33;;;;;;;1.33;63.33;101700.94;5037231;28;20647;-81
2022/04/02 07:27:45;;;;;;;3.90;1.93;;;;;;;1.32;63.21;101700.09;5036674;28;20033;-80
2022/04/02 07:30:11;;;;;;;4.23;2.10;;;;;;;1.34;63.44;101712.94;5038387;28;20063;-81
2022/04/02 07:32:36;;;;;;;3.43;1.83;;;;;;;1.36;64.03;101712.16;5039725;28;20060;-81
2022/04/02 07:35:02;;;;;;;3.70;2.00;;;;;;;1.44;63.74;101714.06;5040905;28;20036;-81
2022/04/02 07:37:53;;;;;;;7.37;2.57;;;;;;;1.51;64.10;101718.53;5035609;28;20036;-81
2022/04/02 07:40:22;;;;;;;4.47;2.03;;;;;;;1.54;63.42;101721.13;5034711;28;20029;-81
2022/04/02 07:43:25;;;;;;;3.13;2.00;;;;;;;1.65;63.84;101724.88;5037675;28;20473;-79
2022/04/02 07:46:13;;;;;;;4.93;2.40;;;;;;;1.69;64.04;101725.81;5039534;28;20079;-81
2022/04/02 07:48:41;;;;;;;5.67;2.37;;;;;;;1.73;64.55;101731.88;5036208;28;20087;-79
2022/04/02 07:51:12;;;;;;;4.70;2.53;;;;;;;1.75;63.14;101728.53;5037626;28;20037;-80
2022/04/02 07:53:44;;;;;;;6.43;2.90;;;;;;;1.85;63.25;101733.88;5036554;28;20035;-81
2022/04/02 07:56:13;;;;;;;4.87;2.40;;;;;;;1.92;63.72;101739.19;5036799;28;20066;-81
2022/04/02 07:58:44;;;;;;;5.47;2.77;;;;;;;1.96;64.09;101741.03;5039578;28;20036;-80
2022/04/02 08:01:12;;;;;;;4.77;2.67;;;;;;;2.05;63.87;101744.66;5019270;28;20028;-80
2022/04/02 08:03:42;;;;;;;5.33;2.50;;;;;;;2.10;63.53;101745.59;5036928;28;20029;-80
2022/04/02 08:06:08;;;;;;;5.83;2.50;;;;;;;2.14;63.09;101747.44;5035844;28;20064;-81
2022/04/02 08:08:34;;;;;;;4.57;2.47;;;;;;;2.18;63.68;101745.78;5039098;28;20384;-81
2022/04/02 08:11:01;;;;;;;7.03;2.93;;;;;;;2.23;63.55;101741.63;5035790;28;21241;-81
2022/04/02 08:13:29;;;;;;;6.70;2.83;;;;;;;2.33;63.80;101740.16;5036382;28;20717;-82
2022/04/02 08:15:56;;;;;;;5.20;3.00;;;;;;;2.37;64.32;101749.66;5035430;28;20029;-81
2022/04/02 08:18:28;;;;;;;6.97;2.90;;;;;;;2.41;63.12;101743.75;5033347;28;20526;-81
2022/04/02 08:20:54;;;;;;;5.87;2.77;;;;;;;2.42;63.07;101745.47;5033794;28;20033;-80
2022/04/02 08:23:20;;;;;;;5.20;3.03;;;;;;;2.48;64.37;101749.88;5036737;28;20433;-81
2022/04/02 08:26:11;;;;;;;8.37;2.90;;;;;;;2.56;63.54;101753.50;5017265;28;20398;-81
2022/04/02 08:28:58;;;;;;;4.77;2.77;;;;;;;2.57;63.04;101761.25;5039389;28;20514;-81
2022/04/02 08:31:30;;;;;;;6.50;3.10;;;;;;;2.65;63.90;101758.84;5034754;28;20096;-81
2022/04/02 08:34:11;;;;;;;5.37;3.33;;;;;;;2.66;63.08;101758.00;5034739;28;20087;-83
2022/04/02 08:36:49;;;;;;;6.03;3.10;;;;;;;2.72;63.04;101765.00;5036003;28;20091;-82
2022/04/02 08:39:35;;;;;;;5.40;2.90;;;;;;;2.79;63.02;101761.72;5035078;28;20473;-81
2022/04/02 08:42:37;;;;;;;5.83;3.07;;;;;;;2.84;63.14;101764.38;5034215;28;20040;-82
2022/04/02 08:45:09;;;;;;;;;;;;;;;2.87;63.11;101769.59;5036758;28;20147;-81
2022/04/02 08:47:37;;;;;;;7.22;3.67;;;;;;;2.91;62.65;101773.06;5035476;28;19924;-82
2022/04/02 08:50:13;;;;;;;6.37;2.93;;;;;;;2.94;62.61;101770.56;5038927;28;21517;-82
2022/04/02 08:52:49;;;;;;;5.60;2.80;;;;;;;3.03;62.68;101769.06;5038618;28;20546;-81
2022/04/02 08:55:14;;;;;;;5.67;2.97;;;;;;;3.11;62.12;101771.78;5032106;28;20056;-81
2022/04/02 08:57:42;;;;;;;5.37;3.20;;;;;;;3.23;62.54;101775.47;5033504;28;20032;-81
2022/04/02 09:00:10;;;;;;;4.87;2.90;;;;;;;3.31;62.78;101787.63;5027319;28;20020;-81
2022/04/02 09:02:55;;;;;;;5.23;2.90;;;;;;;3.36;61.53;101785.16;5037275;28;20085;-82
2022/04/02 09:06:02;;;;;;;5.10;3.13;;;;;;;3.43;61.64;101783.56;5039853;28;20051;-81
2022/04/02 09:09:03;;;;;;;7.00;3.60;;;;;;;3.48;61.88;101794.81;5037479;28;20028;-81
2022/04/02 09:11:47;;;;;;;6.47;3.47;;;;;;;3.55;60.67;101794.06;5040682;28;20091;-80
2022/04/02 09:14:21;;;;;;;8.30;3.60;;;;;;;3.62;60.16;101795.06;5038939;28;20037;-82
2022/04/02 09:17:11;;;;;;;5.17;3.13;;;;;;;3.69;61.41;101799.47;5041160;28;20038;-81
2022/04/02 09:19:55;;;;;;;5.63;3.23;;;;;;;3.81;61.95;101804.00;5039963;28;20116;-81
2022/04/02 09:22:32;;;;;;;7.60;3.23;;;;;;;3.89;61.33;101797.25;5039240;28;20391;-82
2022/04/02 09:25:45;;;;;;;5.90;3.20;;;;;;;3.97;61.26;101807.69;5040356;28;20484;-80
2022/04/02 09:28:32;;;;;;;4.80;3.00;;;;;;;3.97;60.92;101807.69;4958644;28;20046;-81
2022/04/02 09:31:44;;;;;;;5.93;3.13;;;;;;;3.99;60.91;101803.44;5041290;28;20090;-82
2022/04/02 09:34:29;;;;;;;5.22;2.78;;;;;;;4.06;60.58;101810.44;5026106;28;20052;-82
2022/04/02 09:37:04;;;;;;;5.70;3.20;;;;;;;4.03;59.24;101810.38;5040544;28;20499;-81
2022/04/02 09:39:52;;;;;;;5.50;3.50;;;;;;;4.02;61.08;101815.47;5038932;28;20067;-81
2022/04/02 09:42:29;;;;;;;6.27;3.63;;;;;;;4.05;60.50;101803.53;5041327;28;20061;-81
2022/04/02 09:45:14;;;;;;;6.57;3.23;;;;;;;4.18;59.71;101814.94;5041535;28;20037;-81
2022/04/02 09:47:56;;;;;;;7.35;3.50;;;;;;;4.31;59.77;101818.53;5022625;28;20033;-81
2022/04/02 09:50:24;;;;;;;4.60;2.88;;;;;;;4.35;59.07;101811.75;5041404;28;20091;-81
2022/04/02 09:53:13;;;;;;;6.35;3.17;;;;;;;4.38;59.96;101811.78;5040745;28;20056;-81
2022/04/02 09:56:05;;;;;;;5.70;3.50;;;;;;;4.43;59.90;101817.03;5043256;28;20349;-81
2022/04/02 09:59:06;;;;;;;4.78;3.10;;;;;;;4.49;60.29;101814.53;5038172;28;20185;-81
2022/04/02 10:01:58;;;;;;;5.47;3.27;;;;;;;4.51;58.83;101812.84;5039951;28;20492;-83
2022/04/02 10:04:42;;;;;;;5.97;3.38;;;;;;;4.56;59.43;101806.91;5029160;28;20049;-81
2022/04/02 10:07:23;;;;;;;5.40;2.97;;;;;;;4.60;58.33;101813.00;5039494;28;20047;-83
2022/04/02 10:09:54;;;;;;;4.27;2.70;;;;;;;4.58;58.21;101811.22;5038931;28;20487;-80
2022/04/02 10:12:24;;;;;;;6.30;2.95;;;;;;;4.49;57.93;101810.25;5036897;28;21744;-81
2022/04/02 10:14:56;;;;;;;5.07;2.97;;;;;;;4.44;58.41;101811.03;5038694;28;20064;-81
2022/04/02 10:17:25;;;;;;;5.07;3.20;;;;;;;4.39;58.90;101809.25;5038790;28;20475;-81
2022/04/02 10:19:53;;;;;;;5.80;2.92;;;;;;;4.39;57.43;101806.66;5037187;28;20155;-81
2022/04/02 10:22:25;;;;;;;4.00;2.47;;;;;;;4.38;57.60;101806.63;5039195;28;20025;-80
2022/04/02 10:24:51;;;;;;;6.40;2.72;;;;;;;4.45;56.96;101797.28;5041682;28;20033;-82
2022/04/02 10:27:32;;;;;;;5.10;2.88;;;;;;;4.52;57.83;101793.97;5037377;28;20079;-81
2022/04/02 10:30:00;;;;;;;4.88;2.80;;;;;;;4.53;55.89;101798.28;5041292;28;20047;-81
2022/04/02 10:33:26;;;;;;;4.22;2.75;;;;;;;4.62;57.50;101794.97;5038686;28;20065;-82
2022/04/02 10:35:53;;;;;;;8.43;3.00;;;;;;;4.71;56.50;101793.38;5013429;28;20044;-81
2022/04/02 10:38:31;;;;;;;5.38;3.08;;;;;;;4.82;57.90;101792.66;5037132;28;20029;-81
2022/04/02 10:40:57;;;;;;;5.55;2.80;;;;;;;4.78;55.95;101788.31;5036192;28;20064;-81
2022/04/02 10:43:30;;;;;;;4.82;2.97;;;;;;;4.77;56.52;101784.88;5038933;28;20411;-80
2022/04/02 10:45:57;;;;;;;4.03;2.60;;;;;;;4.87;56.42;101780.69;5039658;28;20157;-81
2022/04/02 10:48:38;;;;;;;4.43;2.78;;;;;;;5.00;57.12;101782.59;5038149;28;21181;-81
2022/04/02 10:51:03;;;;;;;3.38;2.30;;;;;;;5.21;56.90;101781.13;5036976;28;20037;-81
2022/04/02 10:53:32;;;;;;;4.50;2.60;;;;;;;5.27;54.60;101791.53;5036797;28;20040;-81
2022/04/02 10:55:59;;;;;;;4.00;2.72;;;;;;;5.31;55.96;101785.53;5036263;28;20028;-81
2022/04/02 10:58:24;;;;;;;5.00;2.80;;;;;;;5.31;52.96;101792.41;5026868;28;20131;-81
2022/04/02 11:00:55;;;;;;;4.80;2.53;;;;;;;5.27;52.10;101799.25;5035596;28;20033;-81
2022/04/02 11:03:33;;;;;;;5.03;2.38;;;;;;;5.20;52.92;101779.38;5034724;28;20380;-81
2022/04/02 11:05:59;;;;;;;5.15;2.13;;;;;;;5.20;52.40;101787.13;5034790;28;20893;-81
2022/04/02 11:08:30;;;;;;;4.95;2.28;;;;;;;5.23;53.26;101794.91;5036421;28;20033;-81
2022/04/02 11:10:58;;;;;;;3.88;2.38;;;;;;;5.20;50.85;101784.53;5033982;28;20033;-81
2022/04/02 11:13:34;;;;;;;5.63;2.35;;;;;;;5.14;50.64;101785.34;5036034;28;20064;-81
2022/04/02 11:15:59;;;;;;;3.80;1.90;;;;;;;5.05;50.66;101781.78;5036559;28;20044;-81
2022/04/02 11:18:25;;;;;;;3.92;2.13;;;;;;;4.90;51.77;101791.06;5038479;28;20040;-80
2022/04/02 11:20:59;;;;;;;4.18;2.30;;;;;;;4.85;52.29;101785.84;5035389;28;20029;-81
2022/04/02 11:24:02;;;;;;;4.47;1.95;;;;;;;4.82;54.18;101782.34;5037422;28;20212;-80
2022/04/02 11:26:28;;;;;;;;;;;;;;;4.77;54.40;101779.72;4983160;28;20124;-81
2022/04/02 11:28:56;;;;;;;4.10;2.40;;;;;;;4.70;54.40;101789.06;5023051;28;19924;-81
2022/04/02 11:31:28;;;;;;;5.40;2.42;;;;;;;4.78;53.21;101783.16;5033823;28;20116;-81
2022/04/02 11:33:57;;;;;;;3.67;2.47;;;;;;;4.96;53.15;101791.13;5036878;28;20049;-80
2022/04/02 11:36:40;;;;;;;4.93;2.70;;;;;;;5.05;51.56;101789.53;5036178;28;20116;-81
2022/04/02 11:39:11;;;;;;;3.35;2.10;;;;;;;5.12;50.77;101792.19;5032797;28;20465;-83
2022/04/02 11:41:42;;;;;;;3.00;1.90;;;;;;;5.16;48.83;101790.50;5036169;28;20033;-82
2022/04/02 11:44:09;;;;;;;4.25;1.73;;;;;;;5.22;52.40;101790.59;5038765;28;20108;-82
2022/04/02 11:46:58;;;;;;;2.95;1.70;;;;;;;5.32;52.27;101789.84;5016622;28;20044;-81
2022/04/02 11:49:25;;;;;;;3.65;2.00;;;;;;;5.42;51.07;101795.13;5032506;28;20071;-81
2022/04/02 11:52:03;;;;;;;4.30;1.92;;;;;;;5.43;52.41;101797.69;5036085;28;20039;-82